sensor_id;sensor_type;location;lat;lon;timestamp;P1;durP1;ratioP1;P2;durP2;ratioP2
74974;SDS011;68459;50.836;19.138;2023-07-02T00:00:10;18.02;;;11.80;;
74974;SDS011;68459;50.836;19.138;2023-07-02T00:03:34;19.33;;;12.48;;
74974;SDS011;68459;50.836;19.138;2023-07-02T00:06:40;20.65;;;12.63;;
74974;SDS011;68459;50.836;19.138;2023-07-02T00:09:44;20.80;;;12.82;;
74974;SDS011;68459;50.836;19.138;2023-07-02T00:12:50;20.65;;;12.52;;
74974;SDS011;68459;50.836;19.138;2023-07-02T00:15:53;17.23;;;12.68;;
74974;SDS011;68459;50.836;19.138;2023-07-02T00:18:57;21.33;;;12.63;;
74974;SDS011;68459;50.836;19.138;2023-07-02T00:22:02;19.85;;;12.40;;
74974;SDS011;68459;50.836;19.138;2023-07-02T00:25:06;22.15;;;12.60;;
74974;SDS011;68459;50.836;19.138;2023-07-02T00:28:12;21.02;;;13.00;;
74974;SDS011;68459;50.836;19.138;2023-07-02T00:31:15;17.55;;;12.35;;
74974;SDS011;68459;50.836;19.138;2023-07-02T00:34:20;18.73;;;11.75;;
74974;SDS011;68459;50.836;19.138;2023-07-02T00:37:23;19.98;;;12.02;;
74974;SDS011;68459;50.836;19.138;2023-07-02T00:40:27;20.30;;;13.07;;
74974;SDS011;68459;50.836;19.138;2023-07-02T00:43:32;16.40;;;11.75;;
74974;SDS011;68459;50.836;19.138;2023-07-02T00:46:36;19.35;;;12.48;;
74974;SDS011;68459;50.836;19.138;2023-07-02T00:49:40;18.97;;;12.30;;
74974;SDS011;68459;50.836;19.138;2023-07-02T00:52:44;18.17;;;12.25;;
74974;SDS011;68459;50.836;19.138;2023-07-02T00:55:48;18.67;;;12.70;;
74974;SDS011;68459;50.836;19.138;2023-07-02T00:58:53;17.73;;;11.52;;
74974;SDS011;68459;50.836;19.138;2023-07-02T01:02:01;17.50;;;11.73;;
74974;SDS011;68459;50.836;19.138;2023-07-02T01:05:06;19.73;;;12.48;;
74974;SDS011;68459;50.836;19.138;2023-07-02T01:08:09;17.95;;;11.90;;
74974;SDS011;68459;50.836;19.138;2023-07-02T01:11:14;19.63;;;11.93;;
74974;SDS011;68459;50.836;19.138;2023-07-02T01:14:21;18.98;;;11.38;;
74974;SDS011;68459;50.836;19.138;2023-07-02T01:17:29;17.08;;;11.77;;
74974;SDS011;68459;50.836;19.138;2023-07-02T01:20:43;16.93;;;10.90;;
74974;SDS011;68459;50.836;19.138;2023-07-02T01:23:50;16.20;;;10.75;;
74974;SDS011;68459;50.836;19.138;2023-07-02T01:26:53;18.80;;;11.23;;
74974;SDS011;68459;50.836;19.138;2023-07-02T01:29:58;19.67;;;11.25;;
74974;SDS011;68459;50.836;19.138;2023-07-02T01:33:02;20.02;;;11.63;;
74974;SDS011;68459;50.836;19.138;2023-07-02T01:36:08;18.10;;;11.65;;
74974;SDS011;68459;50.836;19.138;2023-07-02T01:39:12;18.45;;;12.35;;
74974;SDS011;68459;50.836;19.138;2023-07-02T01:42:17;19.53;;;11.37;;
74974;SDS011;68459;50.836;19.138;2023-07-02T01:45:21;17.13;;;11.15;;
74974;SDS011;68459;50.836;19.138;2023-07-02T01:48:25;17.27;;;11.25;;
74974;SDS011;68459;50.836;19.138;2023-07-02T01:51:30;17.07;;;10.77;;
74974;SDS011;68459;50.836;19.138;2023-07-02T01:54:35;18.45;;;11.75;;
74974;SDS011;68459;50.836;19.138;2023-07-02T01:57:39;18.95;;;11.43;;
74974;SDS011;68459;50.836;19.138;2023-07-02T02:00:43;18.60;;;11.00;;
74974;SDS011;68459;50.836;19.138;2023-07-02T02:03:47;18.88;;;11.73;;
74974;SDS011;68459;50.836;19.138;2023-07-02T02:06:53;19.90;;;11.32;;
74974;SDS011;68459;50.836;19.138;2023-07-02T02:09:58;18.27;;;10.55;;
74974;SDS011;68459;50.836;19.138;2023-07-02T02:13:02;16.10;;;9.70;;
74974;SDS011;68459;50.836;19.138;2023-07-02T02:16:05;15.82;;;9.60;;
74974;SDS011;68459;50.836;19.138;2023-07-02T02:19:10;17.40;;;10.23;;
74974;SDS011;68459;50.836;19.138;2023-07-02T02:22:15;15.57;;;9.13;;
74974;SDS011;68459;50.836;19.138;2023-07-02T02:25:20;15.27;;;8.90;;
74974;SDS011;68459;50.836;19.138;2023-07-02T02:28:23;14.38;;;9.40;;
74974;SDS011;68459;50.836;19.138;2023-07-02T02:31:28;13.07;;;9.15;;
74974;SDS011;68459;50.836;19.138;2023-07-02T02:34:34;16.50;;;9.50;;
74974;SDS011;68459;50.836;19.138;2023-07-02T02:37:40;14.60;;;8.73;;
74974;SDS011;68459;50.836;19.138;2023-07-02T02:40:43;14.95;;;9.02;;
74974;SDS011;68459;50.836;19.138;2023-07-02T02:43:51;14.32;;;9.00;;
74974;SDS011;68459;50.836;19.138;2023-07-02T02:46:56;15.25;;;9.13;;
74974;SDS011;68459;50.836;19.138;2023-07-02T02:50:05;15.55;;;8.85;;
74974;SDS011;68459;50.836;19.138;2023-07-02T02:53:13;14.55;;;8.85;;
74974;SDS011;68459;50.836;19.138;2023-07-02T02:56:17;15.40;;;8.90;;
74974;SDS011;68459;50.836;19.138;2023-07-02T02:59:21;19.13;;;9.18;;
74974;SDS011;68459;50.836;19.138;2023-07-02T03:02:25;14.50;;;8.13;;
74974;SDS011;68459;50.836;19.138;2023-07-02T03:05:29;14.97;;;8.80;;
74974;SDS011;68459;50.836;19.138;2023-07-02T03:08:34;17.33;;;8.82;;
74974;SDS011;68459;50.836;19.138;2023-07-02T03:11:38;17.52;;;9.20;;
74974;SDS011;68459;50.836;19.138;2023-07-02T03:14:42;17.10;;;8.75;;
74974;SDS011;68459;50.836;19.138;2023-07-02T03:17:46;16.15;;;8.63;;
74974;SDS011;68459;50.836;19.138;2023-07-02T03:20:50;15.80;;;8.77;;
74974;SDS011;68459;50.836;19.138;2023-07-02T03:23:55;18.88;;;9.45;;
74974;SDS011;68459;50.836;19.138;2023-07-02T03:27:00;15.37;;;9.07;;
74974;SDS011;68459;50.836;19.138;2023-07-02T03:30:04;15.50;;;8.15;;
74974;SDS011;68459;50.836;19.138;2023-07-02T03:33:09;15.50;;;8.90;;
74974;SDS011;68459;50.836;19.138;2023-07-02T03:36:13;18.77;;;8.17;;
74974;SDS011;68459;50.836;19.138;2023-07-02T03:39:19;16.65;;;8.35;;
74974;SDS011;68459;50.836;19.138;2023-07-02T03:42:23;19.02;;;8.57;;
74974;SDS011;68459;50.836;19.138;2023-07-02T03:45:27;19.95;;;9.18;;
74974;SDS011;68459;50.836;19.138;2023-07-02T03:48:31;16.85;;;8.65;;
74974;SDS011;68459;50.836;19.138;2023-07-02T03:51:35;14.70;;;7.78;;
74974;SDS011;68459;50.836;19.138;2023-07-02T03:54:41;11.43;;;6.90;;
74974;SDS011;68459;50.836;19.138;2023-07-02T03:57:46;11.70;;;6.53;;
74974;SDS011;68459;50.836;19.138;2023-07-02T04:00:49;10.43;;;6.20;;
74974;SDS011;68459;50.836;19.138;2023-07-02T04:03:53;10.10;;;5.78;;
74974;SDS011;68459;50.836;19.138;2023-07-02T04:06:58;10.20;;;5.55;;
74974;SDS011;68459;50.836;19.138;2023-07-02T04:10:04;11.77;;;5.60;;
74974;SDS011;68459;50.836;19.138;2023-07-02T04:13:09;9.23;;;5.57;;
74974;SDS011;68459;50.836;19.138;2023-07-02T04:16:13;9.20;;;5.07;;
74974;SDS011;68459;50.836;19.138;2023-07-02T04:19:17;8.07;;;5.23;;
74974;SDS011;68459;50.836;19.138;2023-07-02T04:22:21;7.78;;;4.95;;
74974;SDS011;68459;50.836;19.138;2023-07-02T04:25:26;7.78;;;5.30;;
74974;SDS011;68459;50.836;19.138;2023-07-02T04:28:50;8.13;;;5.00;;
74974;SDS011;68459;50.836;19.138;2023-07-02T04:31:54;8.57;;;5.10;;
74974;SDS011;68459;50.836;19.138;2023-07-02T04:34:58;12.65;;;4.90;;
74974;SDS011;68459;50.836;19.138;2023-07-02T04:38:02;8.13;;;5.00;;
74974;SDS011;68459;50.836;19.138;2023-07-02T04:41:07;10.40;;;4.90;;
74974;SDS011;68459;50.836;19.138;2023-07-02T04:44:12;9.57;;;4.70;;
74974;SDS011;68459;50.836;19.138;2023-07-02T04:47:16;10.15;;;5.00;;
74974;SDS011;68459;50.836;19.138;2023-07-02T04:50:20;9.35;;;4.82;;
74974;SDS011;68459;50.836;19.138;2023-07-02T04:53:24;5.85;;;4.20;;
74974;SDS011;68459;50.836;19.138;2023-07-02T04:56:29;8.00;;;4.80;;
74974;SDS011;68459;50.836;19.138;2023-07-02T04:59:33;7.80;;;4.78;;
74974;SDS011;68459;50.836;19.138;2023-07-02T05:02:37;6.88;;;4.38;;
74974;SDS011;68459;50.836;19.138;2023-07-02T05:05:41;7.38;;;4.47;;
74974;SDS011;68459;50.836;19.138;2023-07-02T05:08:44;5.78;;;4.00;;
74974;SDS011;68459;50.836;19.138;2023-07-02T05:11:50;7.47;;;4.28;;
74974;SDS011;68459;50.836;19.138;2023-07-02T05:14:53;6.72;;;3.90;;
74974;SDS011;68459;50.836;19.138;2023-07-02T05:17:57;6.83;;;3.70;;
74974;SDS011;68459;50.836;19.138;2023-07-02T05:21:01;5.80;;;3.90;;
74974;SDS011;68459;50.836;19.138;2023-07-02T05:24:05;5.50;;;3.75;;
74974;SDS011;68459;50.836;19.138;2023-07-02T05:27:11;6.13;;;3.58;;
74974;SDS011;68459;50.836;19.138;2023-07-02T05:30:15;5.03;;;3.40;;
74974;SDS011;68459;50.836;19.138;2023-07-02T05:33:18;6.43;;;2.83;;
74974;SDS011;68459;50.836;19.138;2023-07-02T05:36:24;5.93;;;3.00;;
74974;SDS011;68459;50.836;19.138;2023-07-02T05:39:28;4.97;;;3.30;;
74974;SDS011;68459;50.836;19.138;2023-07-02T05:42:34;4.50;;;2.83;;
74974;SDS011;68459;50.836;19.138;2023-07-02T05:45:39;10.05;;;3.40;;
74974;SDS011;68459;50.836;19.138;2023-07-02T05:48:43;6.68;;;3.13;;
74974;SDS011;68459;50.836;19.138;2023-07-02T05:51:46;4.85;;;3.28;;
74974;SDS011;68459;50.836;19.138;2023-07-02T05:54:51;4.97;;;2.80;;
74974;SDS011;68459;50.836;19.138;2023-07-02T05:57:56;7.22;;;3.05;;
74974;SDS011;68459;50.836;19.138;2023-07-02T06:01:05;5.03;;;2.63;;
74974;SDS011;68459;50.836;19.138;2023-07-02T06:04:08;5.43;;;3.00;;
74974;SDS011;68459;50.836;19.138;2023-07-02T06:07:13;4.27;;;2.90;;
74974;SDS011;68459;50.836;19.138;2023-07-02T06:10:16;3.90;;;2.65;;
74974;SDS011;68459;50.836;19.138;2023-07-02T06:13:22;6.03;;;2.50;;
74974;SDS011;68459;50.836;19.138;2023-07-02T06:16:25;3.88;;;2.42;;
74974;SDS011;68459;50.836;19.138;2023-07-02T06:19:29;4.13;;;2.57;;
74974;SDS011;68459;50.836;19.138;2023-07-02T06:22:33;4.72;;;2.25;;
74974;SDS011;68459;50.836;19.138;2023-07-02T06:25:37;4.63;;;2.33;;
74974;SDS011;68459;50.836;19.138;2023-07-02T06:28:42;4.00;;;2.50;;
74974;SDS011;68459;50.836;19.138;2023-07-02T06:31:45;3.83;;;2.20;;
74974;SDS011;68459;50.836;19.138;2023-07-02T06:34:49;3.92;;;2.22;;
74974;SDS011;68459;50.836;19.138;2023-07-02T06:37:53;3.72;;;1.98;;
74974;SDS011;68459;50.836;19.138;2023-07-02T06:40:57;4.05;;;2.22;;
74974;SDS011;68459;50.836;19.138;2023-07-02T06:44:02;6.87;;;2.30;;
74974;SDS011;68459;50.836;19.138;2023-07-02T06:47:06;4.18;;;2.20;;
74974;SDS011;68459;50.836;19.138;2023-07-02T06:50:11;3.92;;;2.20;;
74974;SDS011;68459;50.836;19.138;2023-07-02T06:53:14;4.57;;;1.90;;
74974;SDS011;68459;50.836;19.138;2023-07-02T06:56:18;5.15;;;2.05;;
74974;SDS011;68459;50.836;19.138;2023-07-02T06:59:23;3.47;;;1.65;;
74974;SDS011;68459;50.836;19.138;2023-07-02T07:02:27;3.33;;;1.60;;
74974;SDS011;68459;50.836;19.138;2023-07-02T07:05:31;4.45;;;2.05;;
74974;SDS011;68459;50.836;19.138;2023-07-02T07:08:36;3.28;;;1.48;;
74974;SDS011;68459;50.836;19.138;2023-07-02T07:11:41;2.67;;;1.35;;
74974;SDS011;68459;50.836;19.138;2023-07-02T07:14:46;3.05;;;1.70;;
74974;SDS011;68459;50.836;19.138;2023-07-02T07:17:50;4.73;;;1.30;;
74974;SDS011;68459;50.836;19.138;2023-07-02T07:20:54;2.65;;;1.55;;
74974;SDS011;68459;50.836;19.138;2023-07-02T07:23:57;3.72;;;1.50;;
74974;SDS011;68459;50.836;19.138;2023-07-02T07:27:01;3.70;;;1.50;;
74974;SDS011;68459;50.836;19.138;2023-07-02T07:30:07;3.50;;;1.47;;
74974;SDS011;68459;50.836;19.138;2023-07-02T07:33:12;2.55;;;1.13;;
74974;SDS011;68459;50.836;19.138;2023-07-02T07:36:15;2.17;;;1.40;;
74974;SDS011;68459;50.836;19.138;2023-07-02T07:39:19;2.83;;;1.05;;
74974;SDS011;68459;50.836;19.138;2023-07-02T07:42:23;2.00;;;1.20;;
74974;SDS011;68459;50.836;19.138;2023-07-02T07:45:29;2.13;;;1.13;;
74974;SDS011;68459;50.836;19.138;2023-07-02T07:48:32;3.15;;;1.10;;
74974;SDS011;68459;50.836;19.138;2023-07-02T07:51:36;2.20;;;1.10;;
74974;SDS011;68459;50.836;19.138;2023-07-02T07:54:40;2.13;;;1.50;;
74974;SDS011;68459;50.836;19.138;2023-07-02T07:57:44;2.05;;;1.35;;
74974;SDS011;68459;50.836;19.138;2023-07-02T08:00:49;2.65;;;1.30;;
74974;SDS011;68459;50.836;19.138;2023-07-02T08:03:53;2.45;;;1.10;;
74974;SDS011;68459;50.836;19.138;2023-07-02T08:06:57;1.60;;;0.90;;
74974;SDS011;68459;50.836;19.138;2023-07-02T08:10:01;3.30;;;1.40;;
74974;SDS011;68459;50.836;19.138;2023-07-02T08:13:05;1.73;;;1.00;;
74974;SDS011;68459;50.836;19.138;2023-07-02T08:16:12;2.17;;;1.10;;
74974;SDS011;68459;50.836;19.138;2023-07-02T08:19:16;2.93;;;1.40;;
74974;SDS011;68459;50.836;19.138;2023-07-02T08:22:23;3.00;;;1.10;;
74974;SDS011;68459;50.836;19.138;2023-07-02T08:25:27;3.08;;;1.40;;
74974;SDS011;68459;50.836;19.138;2023-07-02T08:28:31;2.70;;;1.35;;
74974;SDS011;68459;50.836;19.138;2023-07-02T08:31:36;2.37;;;1.37;;
74974;SDS011;68459;50.836;19.138;2023-07-02T08:34:40;2.20;;;1.30;;
74974;SDS011;68459;50.836;19.138;2023-07-02T08:37:44;3.00;;;1.27;;
74974;SDS011;68459;50.836;19.138;2023-07-02T08:40:48;3.22;;;1.27;;
74974;SDS011;68459;50.836;19.138;2023-07-02T08:43:54;2.83;;;1.50;;
74974;SDS011;68459;50.836;19.138;2023-07-02T08:47:00;2.70;;;1.30;;
74974;SDS011;68459;50.836;19.138;2023-07-02T08:50:05;2.03;;;1.33;;
74974;SDS011;68459;50.836;19.138;2023-07-02T08:53:09;2.47;;;1.40;;
74974;SDS011;68459;50.836;19.138;2023-07-02T08:56:13;2.80;;;1.40;;
74974;SDS011;68459;50.836;19.138;2023-07-02T08:59:17;2.80;;;1.38;;
74974;SDS011;68459;50.836;19.138;2023-07-02T09:02:31;2.30;;;1.58;;
74974;SDS011;68459;50.836;19.138;2023-07-02T09:05:35;2.20;;;1.23;;
74974;SDS011;68459;50.836;19.138;2023-07-02T09:08:39;2.43;;;1.40;;
74974;SDS011;68459;50.836;19.138;2023-07-02T09:11:46;2.33;;;1.30;;
74974;SDS011;68459;50.836;19.138;2023-07-02T09:14:55;2.90;;;1.50;;
74974;SDS011;68459;50.836;19.138;2023-07-02T09:18:01;2.50;;;1.23;;
74974;SDS011;68459;50.836;19.138;2023-07-02T09:21:06;1.98;;;1.17;;
74974;SDS011;68459;50.836;19.138;2023-07-02T09:24:13;2.13;;;1.17;;
74974;SDS011;68459;50.836;19.138;2023-07-02T09:27:21;1.88;;;1.15;;
74974;SDS011;68459;50.836;19.138;2023-07-02T09:30:25;3.85;;;1.70;;
74974;SDS011;68459;50.836;19.138;2023-07-02T09:33:30;1.90;;;1.30;;
74974;SDS011;68459;50.836;19.138;2023-07-02T09:36:34;2.23;;;1.50;;
74974;SDS011;68459;50.836;19.138;2023-07-02T09:39:42;3.05;;;1.40;;
74974;SDS011;68459;50.836;19.138;2023-07-02T09:42:46;3.20;;;1.60;;
74974;SDS011;68459;50.836;19.138;2023-07-02T09:45:54;2.58;;;1.30;;
74974;SDS011;68459;50.836;19.138;2023-07-02T09:49:00;2.10;;;1.40;;
74974;SDS011;68459;50.836;19.138;2023-07-02T09:52:05;2.10;;;1.50;;
74974;SDS011;68459;50.836;19.138;2023-07-02T09:55:11;2.08;;;1.40;;
74974;SDS011;68459;50.836;19.138;2023-07-02T09:58:15;2.53;;;1.40;;
74974;SDS011;68459;50.836;19.138;2023-07-02T10:01:19;2.72;;;1.55;;
74974;SDS011;68459;50.836;19.138;2023-07-02T10:04:25;2.10;;;1.30;;
74974;SDS011;68459;50.836;19.138;2023-07-02T10:07:29;2.50;;;1.37;;
74974;SDS011;68459;50.836;19.138;2023-07-02T10:10:35;3.05;;;1.50;;
74974;SDS011;68459;50.836;19.138;2023-07-02T10:13:39;2.83;;;1.50;;
74974;SDS011;68459;50.836;19.138;2023-07-02T10:16:50;2.72;;;1.70;;
74974;SDS011;68459;50.836;19.138;2023-07-02T10:19:57;2.58;;;1.80;;
74974;SDS011;68459;50.836;19.138;2023-07-02T10:23:03;4.13;;;1.60;;
74974;SDS011;68459;50.836;19.138;2023-07-02T10:26:10;3.95;;;1.60;;
74974;SDS011;68459;50.836;19.138;2023-07-02T10:29:18;3.35;;;2.00;;
74974;SDS011;68459;50.836;19.138;2023-07-02T10:32:26;2.75;;;1.80;;
74974;SDS011;68459;50.836;19.138;2023-07-02T10:35:32;2.63;;;1.63;;
74974;SDS011;68459;50.836;19.138;2023-07-02T10:38:36;3.88;;;1.77;;
74974;SDS011;68459;50.836;19.138;2023-07-02T10:41:40;2.33;;;1.70;;
74974;SDS011;68459;50.836;19.138;2023-07-02T10:44:47;2.90;;;1.90;;
74974;SDS011;68459;50.836;19.138;2023-07-02T10:47:54;2.63;;;1.60;;
74974;SDS011;68459;50.836;19.138;2023-07-02T10:50:59;3.00;;;1.70;;
74974;SDS011;68459;50.836;19.138;2023-07-02T10:54:04;2.63;;;1.63;;
74974;SDS011;68459;50.836;19.138;2023-07-02T10:57:08;2.42;;;1.60;;
74974;SDS011;68459;50.836;19.138;2023-07-02T11:00:13;2.30;;;1.40;;
74974;SDS011;68459;50.836;19.138;2023-07-02T11:03:18;4.15;;;1.30;;
74974;SDS011;68459;50.836;19.138;2023-07-02T11:06:24;4.07;;;1.40;;
74974;SDS011;68459;50.836;19.138;2023-07-02T11:09:29;2.17;;;1.30;;
74974;SDS011;68459;50.836;19.138;2023-07-02T11:12:34;1.90;;;1.10;;
74974;SDS011;68459;50.836;19.138;2023-07-02T11:15:38;3.15;;;1.20;;
74974;SDS011;68459;50.836;19.138;2023-07-02T11:18:43;2.47;;;1.30;;
74974;SDS011;68459;50.836;19.138;2023-07-02T11:21:51;1.90;;;1.10;;
74974;SDS011;68459;50.836;19.138;2023-07-02T11:24:57;1.67;;;1.10;;
74974;SDS011;68459;50.836;19.138;2023-07-02T11:28:13;2.60;;;1.33;;
74974;SDS011;68459;50.836;19.138;2023-07-02T11:31:26;2.55;;;1.20;;
74974;SDS011;68459;50.836;19.138;2023-07-02T11:34:32;2.95;;;1.20;;
74974;SDS011;68459;50.836;19.138;2023-07-02T11:37:37;2.47;;;1.33;;
74974;SDS011;68459;50.836;19.138;2023-07-02T11:40:41;1.50;;;0.90;;
74974;SDS011;68459;50.836;19.138;2023-07-02T11:43:44;2.25;;;1.23;;
74974;SDS011;68459;50.836;19.138;2023-07-02T11:46:49;2.00;;;1.10;;
74974;SDS011;68459;50.836;19.138;2023-07-02T11:49:53;1.48;;;0.90;;
74974;SDS011;68459;50.836;19.138;2023-07-02T11:52:59;1.90;;;1.20;;
74974;SDS011;68459;50.836;19.138;2023-07-02T11:56:05;2.35;;;1.10;;
74974;SDS011;68459;50.836;19.138;2023-07-02T11:59:09;1.70;;;1.10;;
74974;SDS011;68459;50.836;19.138;2023-07-02T12:02:12;2.05;;;1.00;;
74974;SDS011;68459;50.836;19.138;2023-07-02T12:05:17;2.42;;;1.10;;
74974;SDS011;68459;50.836;19.138;2023-07-02T12:08:21;4.00;;;1.20;;
74974;SDS011;68459;50.836;19.138;2023-07-02T12:11:26;2.47;;;1.05;;
74974;SDS011;68459;50.836;19.138;2023-07-02T12:14:29;2.92;;;1.00;;
74974;SDS011;68459;50.836;19.138;2023-07-02T12:17:34;1.55;;;0.85;;
74974;SDS011;68459;50.836;19.138;2023-07-02T12:20:38;2.60;;;0.82;;
74974;SDS011;68459;50.836;19.138;2023-07-02T12:23:44;1.50;;;0.87;;
74974;SDS011;68459;50.836;19.138;2023-07-02T12:26:48;1.55;;;0.82;;
74974;SDS011;68459;50.836;19.138;2023-07-02T12:29:52;2.22;;;0.82;;
74974;SDS011;68459;50.836;19.138;2023-07-02T12:32:55;1.50;;;0.90;;
74974;SDS011;68459;50.836;19.138;2023-07-02T12:35:59;2.22;;;0.90;;
74974;SDS011;68459;50.836;19.138;2023-07-02T12:39:04;1.60;;;0.70;;
74974;SDS011;68459;50.836;19.138;2023-07-02T12:42:08;2.15;;;0.93;;
74974;SDS011;68459;50.836;19.138;2023-07-02T12:45:12;2.05;;;0.95;;
74974;SDS011;68459;50.836;19.138;2023-07-02T12:48:21;2.03;;;0.90;;
74974;SDS011;68459;50.836;19.138;2023-07-02T12:51:24;2.20;;;0.90;;
74974;SDS011;68459;50.836;19.138;2023-07-02T12:54:29;1.67;;;0.87;;
74974;SDS011;68459;50.836;19.138;2023-07-02T12:57:33;2.25;;;0.90;;
74974;SDS011;68459;50.836;19.138;2023-07-02T13:00:38;2.17;;;1.10;;
74974;SDS011;68459;50.836;19.138;2023-07-02T13:03:44;1.48;;;0.80;;
74974;SDS011;68459;50.836;19.138;2023-07-02T13:06:49;1.42;;;0.80;;
74974;SDS011;68459;50.836;19.138;2023-07-02T13:09:54;1.70;;;0.90;;
74974;SDS011;68459;50.836;19.138;2023-07-02T13:12:58;2.10;;;1.10;;
74974;SDS011;68459;50.836;19.138;2023-07-02T13:16:18;2.85;;;0.82;;
74974;SDS011;68459;50.836;19.138;2023-07-02T13:19:22;1.60;;;0.90;;
74974;SDS011;68459;50.836;19.138;2023-07-02T13:22:26;2.75;;;0.98;;
74974;SDS011;68459;50.836;19.138;2023-07-02T13:25:31;2.27;;;1.57;;
74974;SDS011;68459;50.836;19.138;2023-07-02T13:28:34;1.80;;;1.00;;
74974;SDS011;68459;50.836;19.138;2023-07-02T13:31:38;2.22;;;0.90;;
74974;SDS011;68459;50.836;19.138;2023-07-02T13:34:42;2.20;;;0.80;;
74974;SDS011;68459;50.836;19.138;2023-07-02T13:37:46;1.77;;;1.00;;
74974;SDS011;68459;50.836;19.138;2023-07-02T13:40:51;3.00;;;1.00;;
74974;SDS011;68459;50.836;19.138;2023-07-02T13:43:55;1.40;;;0.80;;
74974;SDS011;68459;50.836;19.138;2023-07-02T13:46:59;1.70;;;1.00;;
74974;SDS011;68459;50.836;19.138;2023-07-02T13:50:03;1.77;;;1.10;;
74974;SDS011;68459;50.836;19.138;2023-07-02T13:53:08;3.60;;;0.90;;
74974;SDS011;68459;50.836;19.138;2023-07-02T13:56:14;1.40;;;0.83;;
74974;SDS011;68459;50.836;19.138;2023-07-02T13:59:19;1.60;;;0.85;;
74974;SDS011;68459;50.836;19.138;2023-07-02T14:02:23;1.85;;;1.00;;
74974;SDS011;68459;50.836;19.138;2023-07-02T14:05:27;3.00;;;0.90;;
74974;SDS011;68459;50.836;19.138;2023-07-02T14:08:31;1.33;;;0.80;;
74974;SDS011;68459;50.836;19.138;2023-07-02T14:11:34;2.13;;;0.80;;
74974;SDS011;68459;50.836;19.138;2023-07-02T14:14:46;1.35;;;0.80;;
74974;SDS011;68459;50.836;19.138;2023-07-02T14:17:50;2.58;;;1.00;;
74974;SDS011;68459;50.836;19.138;2023-07-02T14:20:54;2.72;;;1.10;;
74974;SDS011;68459;50.836;19.138;2023-07-02T14:23:58;1.77;;;1.13;;
74974;SDS011;68459;50.836;19.138;2023-07-02T14:27:02;2.03;;;1.00;;
74974;SDS011;68459;50.836;19.138;2023-07-02T14:30:09;2.17;;;1.00;;
74974;SDS011;68459;50.836;19.138;2023-07-02T14:33:14;2.03;;;1.00;;
74974;SDS011;68459;50.836;19.138;2023-07-02T14:36:18;2.15;;;1.35;;
74974;SDS011;68459;50.836;19.138;2023-07-02T14:39:22;2.53;;;1.00;;
74974;SDS011;68459;50.836;19.138;2023-07-02T14:42:26;2.40;;;0.90;;
74974;SDS011;68459;50.836;19.138;2023-07-02T14:45:31;1.90;;;0.85;;
74974;SDS011;68459;50.836;19.138;2023-07-02T14:48:34;3.30;;;0.90;;
74974;SDS011;68459;50.836;19.138;2023-07-02T14:51:38;3.25;;;1.30;;
74974;SDS011;68459;50.836;19.138;2023-07-02T14:54:42;1.90;;;1.00;;
74974;SDS011;68459;50.836;19.138;2023-07-02T14:57:46;3.10;;;0.90;;
74974;SDS011;68459;50.836;19.138;2023-07-02T15:00:51;2.17;;;0.88;;
74974;SDS011;68459;50.836;19.138;2023-07-02T15:03:57;2.83;;;0.98;;
74974;SDS011;68459;50.836;19.138;2023-07-02T15:07:02;1.73;;;0.80;;
74974;SDS011;68459;50.836;19.138;2023-07-02T15:10:07;1.65;;;0.80;;
74974;SDS011;68459;50.836;19.138;2023-07-02T15:13:10;1.80;;;0.80;;
74974;SDS011;68459;50.836;19.138;2023-07-02T15:16:16;2.00;;;0.80;;
74974;SDS011;68459;50.836;19.138;2023-07-02T15:19:21;2.25;;;1.10;;
74974;SDS011;68459;50.836;19.138;2023-07-02T15:22:27;1.60;;;0.85;;
74974;SDS011;68459;50.836;19.138;2023-07-02T15:25:31;1.65;;;1.00;;
74974;SDS011;68459;50.836;19.138;2023-07-02T15:28:35;1.80;;;0.80;;
74974;SDS011;68459;50.836;19.138;2023-07-02T15:31:41;1.95;;;0.88;;
74974;SDS011;68459;50.836;19.138;2023-07-02T15:34:48;2.40;;;1.00;;
74974;SDS011;68459;50.836;19.138;2023-07-02T15:37:51;1.70;;;1.10;;
74974;SDS011;68459;50.836;19.138;2023-07-02T15:41:04;1.80;;;1.10;;
74974;SDS011;68459;50.836;19.138;2023-07-02T15:44:11;3.77;;;1.10;;
74974;SDS011;68459;50.836;19.138;2023-07-02T15:47:16;3.33;;;1.60;;
74974;SDS011;68459;50.836;19.138;2023-07-02T15:50:19;1.80;;;0.90;;
74974;SDS011;68459;50.836;19.138;2023-07-02T15:53:23;2.10;;;1.00;;
74974;SDS011;68459;50.836;19.138;2023-07-02T15:56:27;2.22;;;0.95;;
74974;SDS011;68459;50.836;19.138;2023-07-02T15:59:34;2.83;;;1.10;;
74974;SDS011;68459;50.836;19.138;2023-07-02T16:02:42;2.28;;;1.00;;
74974;SDS011;68459;50.836;19.138;2023-07-02T16:05:48;2.10;;;1.23;;
74974;SDS011;68459;50.836;19.138;2023-07-02T16:09:00;2.90;;;1.40;;
74974;SDS011;68459;50.836;19.138;2023-07-02T16:12:04;3.67;;;1.00;;
74974;SDS011;68459;50.836;19.138;2023-07-02T16:15:09;2.00;;;1.10;;
74974;SDS011;68459;50.836;19.138;2023-07-02T16:18:17;2.30;;;1.30;;
74974;SDS011;68459;50.836;19.138;2023-07-02T16:21:20;2.20;;;1.20;;
74974;SDS011;68459;50.836;19.138;2023-07-02T16:24:25;2.40;;;1.20;;
74974;SDS011;68459;50.836;19.138;2023-07-02T16:27:34;2.35;;;1.30;;
74974;SDS011;68459;50.836;19.138;2023-07-02T16:30:38;1.87;;;1.07;;
74974;SDS011;68459;50.836;19.138;2023-07-02T16:33:43;2.42;;;1.20;;
74974;SDS011;68459;50.836;19.138;2023-07-02T16:36:47;2.30;;;0.98;;
74974;SDS011;68459;50.836;19.138;2023-07-02T16:39:50;1.92;;;1.20;;
74974;SDS011;68459;50.836;19.138;2023-07-02T16:42:55;1.92;;;1.20;;
74974;SDS011;68459;50.836;19.138;2023-07-02T16:45:58;3.67;;;1.20;;
74974;SDS011;68459;50.836;19.138;2023-07-02T16:49:03;2.22;;;1.35;;
74974;SDS011;68459;50.836;19.138;2023-07-02T16:52:07;6.10;;;3.65;;
74974;SDS011;68459;50.836;19.138;2023-07-02T16:55:11;9.75;;;5.43;;
74974;SDS011;68459;50.836;19.138;2023-07-02T16:58:15;3.60;;;1.38;;
74974;SDS011;68459;50.836;19.138;2023-07-02T17:01:19;2.13;;;1.13;;
74974;SDS011;68459;50.836;19.138;2023-07-02T17:04:25;4.75;;;1.33;;
74974;SDS011;68459;50.836;19.138;2023-07-02T17:07:30;1.95;;;0.98;;
74974;SDS011;68459;50.836;19.138;2023-07-02T17:10:33;2.40;;;1.15;;
74974;SDS011;68459;50.836;19.138;2023-07-02T17:13:37;1.95;;;1.10;;
74974;SDS011;68459;50.836;19.138;2023-07-02T17:16:41;2.60;;;1.20;;
74974;SDS011;68459;50.836;19.138;2023-07-02T17:19:47;1.83;;;1.05;;
74974;SDS011;68459;50.836;19.138;2023-07-02T17:22:52;1.88;;;1.05;;
74974;SDS011;68459;50.836;19.138;2023-07-02T17:25:59;2.50;;;1.10;;
74974;SDS011;68459;50.836;19.138;2023-07-02T17:29:05;1.80;;;1.00;;
74974;SDS011;68459;50.836;19.138;2023-07-02T17:32:10;2.97;;;1.27;;
74974;SDS011;68459;50.836;19.138;2023-07-02T17:35:14;5.38;;;1.23;;
74974;SDS011;68459;50.836;19.138;2023-07-02T17:38:19;2.13;;;1.20;;
74974;SDS011;68459;50.836;19.138;2023-07-02T17:41:22;2.30;;;1.10;;
74974;SDS011;68459;50.836;19.138;2023-07-02T17:44:27;2.00;;;1.27;;
74974;SDS011;68459;50.836;19.138;2023-07-02T17:47:39;3.20;;;1.00;;
74974;SDS011;68459;50.836;19.138;2023-07-02T17:50:47;3.50;;;1.20;;
74974;SDS011;68459;50.836;19.138;2023-07-02T17:53:57;2.63;;;1.20;;
74974;SDS011;68459;50.836;19.138;2023-07-02T17:57:00;2.38;;;1.10;;
74974;SDS011;68459;50.836;19.138;2023-07-02T18:00:05;2.58;;;1.00;;
74974;SDS011;68459;50.836;19.138;2023-07-02T18:03:11;2.17;;;1.37;;
74974;SDS011;68459;50.836;19.138;2023-07-02T18:06:16;3.05;;;1.38;;
74974;SDS011;68459;50.836;19.138;2023-07-02T18:09:21;3.45;;;1.48;;
74974;SDS011;68459;50.836;19.138;2023-07-02T18:12:24;2.38;;;1.30;;